Mandalgovi, Mongolia
Current Conditions -  °F | °C
As of 11:30 AM on Wednesday 26 Nov 2014 (Local Time) from ZMUB Reporting Station
Broken Clouds Broken Clouds  
Wind Chill: -11°   Ceiling: 25000
Heat Index:   Visibility: 6mi
Dew Point: -8°   Wind: 9mph
Humidity: 61%   Direction: 210°SSW
Pressure: 29.88"   Gusts: NA
Location:  45.77°N, 106.26°E
Report Text: ZMUB 260330Z 21004MPS 190V250 9999 FEW033 BKN250 M16/M22 Q1012 NOSIG RMK QFE652.0 60 MOP
Loading
Personal Weather Stations






























Interactive Weather Map New forecast layout! Learn more

10-Day Weather Forecast

Advertisements
Track Severe Weather on mobile